createdAt,value
2017-05-26T00:00:17.098Z,1016.23
2017-05-26T00:01:27.395Z,1016.2
2017-05-26T00:02:37.672Z,1016.21
2017-05-26T00:03:48.020Z,1016.27
2017-05-26T00:04:58.242Z,1016.25
2017-05-26T00:06:08.208Z,1016.23
2017-05-26T00:07:18.498Z,1016.21
2017-05-26T00:08:28.544Z,1016.23
2017-05-26T00:09:38.820Z,1016.21
2017-05-26T00:10:49.046Z,1016.21
2017-05-26T00:11:59.333Z,1016.2
2017-05-26T00:13:09.623Z,1016.24
2017-05-26T00:14:19.905Z,1016.26
2017-05-26T00:15:30.183Z,1016.25
2017-05-26T00:16:40.730Z,1016.23
2017-05-26T00:17:50.695Z,1016.25
2017-05-26T00:19:00.986Z,1016.2
2017-05-26T00:20:11.264Z,1016.22
2017-05-26T00:21:20.934Z,1016.2
2017-05-26T00:22:31.476Z,1016.16
2017-05-26T00:23:41.751Z,1016.16
2017-05-26T00:24:51.723Z,1016.15
2017-05-26T00:26:02.006Z,1016.17
2017-05-26T00:27:12.293Z,1016.21
2017-05-26T00:28:22.826Z,1016.18
2017-05-26T00:29:33.107Z,1016.18
2017-05-26T00:30:43.382Z,1016.17
2017-05-26T00:31:53.660Z,1016.13
2017-05-26T00:33:03.938Z,1016.14
2017-05-26T00:34:13.840Z,1016.15
2017-05-26T00:35:24.112Z,1016.13
2017-05-26T00:36:34.407Z,1016.15
2017-05-26T00:37:44.696Z,1016.13
2017-05-26T00:38:54.976Z,1016.15
2017-05-26T00:40:05.506Z,1016.15
2017-05-26T00:41:15.789Z,1016.14
2017-05-26T00:42:25.757Z,1016.16
2017-05-26T00:43:36.036Z,1016.18
2017-05-26T00:44:46.325Z,1016.15
2017-05-26T00:45:56.859Z,1016.18
2017-05-26T00:47:06.836Z,1016.15
2017-05-26T00:48:16.801Z,1016.15
2017-05-26T00:49:27.073Z,1016.13
2017-05-26T00:50:37.347Z,1016.1
2017-05-26T00:51:47.571Z,1016.09
2017-05-26T00:52:57.245Z,1016.05
2017-05-26T00:54:07.213Z,1016.1
2017-05-26T00:55:17.502Z,1016.1
2017-05-26T00:56:27.477Z,1016.11
2017-05-26T00:57:37.694Z,1016.08
2017-05-26T00:58:47.976Z,1016.07
2017-05-26T00:59:58.285Z,1016.06
2017-05-26T01:01:08.256Z,1016.04
2017-05-26T01:02:18.542Z,1016.07
2017-05-26T01:03:28.814Z,1016.04
2017-05-26T01:04:38.777Z,1016.06
2017-05-26T01:05:49.065Z,1016.06
2017-05-26T01:06:59.080Z,1016.05
2017-05-26T01:08:09.358Z,1016.05
2017-05-26T01:09:19.581Z,1016.07
2017-05-26T01:10:29.865Z,1016.03
2017-05-26T01:11:39.839Z,1016.02
2017-05-26T01:12:50.126Z,1016.05
2017-05-26T01:14:00.404Z,1016.05
2017-05-26T01:15:10.934Z,1016.07
2017-05-26T01:16:20.594Z,1016.06
2017-05-26T01:17:30.890Z,1016.11
2017-05-26T01:18:41.186Z,1016.11
2017-05-26T01:19:51.149Z,1016.17
2017-05-26T01:21:01.684Z,1016.17
2017-05-26T01:22:11.971Z,1016.17
2017-05-26T01:23:22.246Z,1016.15
2017-05-26T01:24:32.536Z,1016.17
2017-05-26T01:25:42.824Z,1016.15
2017-05-26T01:26:53.368Z,1016.16
2017-05-26T01:28:03.645Z,1016.18
2017-05-26T01:29:13.933Z,1016.14
2017-05-26T01:30:24.215Z,1016.16
2017-05-26T01:31:34.179Z,1016.16
2017-05-26T01:32:44.402Z,1016.15
2017-05-26T01:33:54.690Z,1016.18
2017-05-26T01:35:04.979Z,1016.2
2017-05-26T01:36:15.252Z,1016.16
2017-05-26T01:37:25.540Z,1016.14
2017-05-26T01:38:35.756Z,1016.14
2017-05-26T01:39:46.109Z,1016.17
2017-05-26T01:40:56.399Z,1016.2
2017-05-26T01:42:06.376Z,1016.2
2017-05-26T01:43:16.342Z,1016.16
2017-05-26T01:44:26.923Z,1016.12
2017-05-26T01:45:36.584Z,1016.14
2017-05-26T01:46:46.545Z,1016.13
2017-05-26T01:47:56.835Z,1016.14
2017-05-26T01:49:06.804Z,1016.16
2017-05-26T01:50:17.332Z,1016.18
2017-05-26T01:51:27.608Z,1016.17
2017-05-26T01:52:37.889Z,1016.17
2017-05-26T01:53:48.171Z,1016.16
2017-05-26T01:54:58.459Z,1016.14
2017-05-26T01:56:08.683Z,1016.14
2017-05-26T01:57:18.961Z,1016.14
2017-05-26T01:58:29.236Z,1016.14
2017-05-26T01:59:39.518Z,1016.15
2017-05-26T02:00:49.803Z,1016.11
2017-05-26T02:02:00.022Z,1016.11
2017-05-26T02:03:10.299Z,1016.12
2017-05-26T02:04:20.577Z,1016.13
2017-05-26T02:05:30.551Z,1016.12
2017-05-26T02:06:40.824Z,1016.16
2017-05-26T02:07:51.369Z,1016.17
2017-05-26T02:09:01.650Z,1016.14
2017-05-26T02:10:11.614Z,1016.14
2017-05-26T02:11:21.893Z,1016.13
2017-05-26T02:12:31.859Z,1016.18
2017-05-26T02:13:42.391Z,1016.19
2017-05-26T02:14:52.676Z,1016.17
2017-05-26T02:16:02.642Z,1016.17
2017-05-26T02:17:12.611Z,1016.17
2017-05-26T02:18:22.887Z,1016.15
2017-05-26T02:19:32.799Z,1016.2
2017-05-26T02:20:43.077Z,1016.17
2017-05-26T02:21:53.432Z,1016.2
2017-05-26T02:23:03.406Z,1016.21
2017-05-26T02:24:13.691Z,1016.16
2017-05-26T02:25:23.911Z,1016.17
2017-05-26T02:26:34.189Z,1016.22
2017-05-26T02:27:44.470Z,1016.2
2017-05-26T02:28:54.766Z,1016.2
2017-05-26T02:30:05.045Z,1016.19
2017-05-26T02:31:15.262Z,1016.16
2017-05-26T02:32:25.233Z,1016.16
2017-05-26T02:33:35.203Z,1016.18
2017-05-26T02:34:45.479Z,1016.16
2017-05-26T02:35:55.450Z,1016.15
2017-05-26T02:37:05.978Z,1016.21
2017-05-26T02:38:15.948Z,1016.19
2017-05-26T02:39:25.938Z,1016.16
2017-05-26T02:40:36.214Z,1016.19
2017-05-26T02:41:46.489Z,1016.2
2017-05-26T02:42:57.019Z,1016.18
2017-05-26T02:44:07.298Z,1016.21
2017-05-26T02:45:17.578Z,1016.19
2017-05-26T02:46:27.549Z,1016.18
2017-05-26T02:47:37.837Z,1016.15
2017-05-26T02:48:48.370Z,1016.2
2017-05-26T02:49:58.656Z,1016.17
2017-05-26T02:51:08.940Z,1016.18
2017-05-26T02:52:18.915Z,1016.17
2017-05-26T02:53:28.885Z,1016.2
2017-05-26T02:54:39.100Z,1016.14
2017-05-26T02:55:49.389Z,1016.2
2017-05-26T02:56:59.672Z,1016.16
2017-05-26T02:58:09.952Z,1016.15
2017-05-26T02:59:20.234Z,1016.14
2017-05-26T03:00:30.160Z,1016.14
2017-05-26T03:01:40.125Z,1016.16
2017-05-26T03:02:50.402Z,1016.09
2017-05-26T03:04:00.679Z,1016.13
2017-05-26T03:05:10.963Z,1016.13
2017-05-26T03:06:21.497Z,1016.12
2017-05-26T03:07:31.465Z,1016.1
2017-05-26T03:08:41.756Z,1016.16
2017-05-26T03:09:52.039Z,1016.16
2017-05-26T03:11:02.008Z,1016.15
2017-05-26T03:12:12.227Z,1016.16
2017-05-26T03:13:22.557Z,1016.14
2017-05-26T03:14:32.944Z,1016.16
2017-05-26T03:15:43.226Z,1016.21
2017-05-26T03:16:53.568Z,1016.2
2017-05-26T03:18:03.795Z,1016.24
2017-05-26T03:19:14.079Z,1016.21
2017-05-26T03:20:24.049Z,1016.19
2017-05-26T03:21:34.324Z,1016.23
2017-05-26T03:22:44.611Z,1016.24
2017-05-26T03:23:55.140Z,1016.23
2017-05-26T03:25:05.425Z,1016.29
2017-05-26T03:26:15.703Z,1016.23
2017-05-26T03:27:25.990Z,1016.31
2017-05-26T03:28:36.272Z,1016.3
2017-05-26T03:29:46.872Z,1016.26
2017-05-26T03:30:57.162Z,1016.29
2017-05-26T03:32:07.440Z,1016.29
2017-05-26T03:33:17.722Z,1016.28
2017-05-26T03:34:27.686Z,1016.28
2017-05-26T03:35:38.216Z,1016.27
2017-05-26T03:36:48.185Z,1016.26
2017-05-26T03:37:58.154Z,1016.25
2017-05-26T03:39:08.433Z,1016.28
2017-05-26T03:40:18.403Z,1016.28
2017-05-26T03:41:28.949Z,1016.28
2017-05-26T03:42:38.916Z,1016.3
2017-05-26T03:43:49.199Z,1016.28
2017-05-26T03:44:59.487Z,1016.3
2017-05-26T03:46:09.450Z,1016.3
2017-05-26T03:47:19.989Z,1016.29
2017-05-26T03:48:30.269Z,1016.33
2017-05-26T03:49:40.549Z,1016.32
2017-05-26T03:50:50.837Z,1016.35
2017-05-26T03:52:01.123Z,1016.35
2017-05-26T03:53:11.656Z,1016.33
2017-05-26T03:54:21.633Z,1016.27
2017-05-26T03:55:31.913Z,1016.32
2017-05-26T03:56:41.886Z,1016.3
2017-05-26T03:57:52.177Z,1016.3
2017-05-26T03:59:02.714Z,1016.31
2017-05-26T04:00:12.999Z,1016.3
2017-05-26T04:01:22.964Z,1016.35
2017-05-26T04:02:33.261Z,1016.31
2017-05-26T04:03:43.551Z,1016.33
2017-05-26T04:04:54.106Z,1016.31
2017-05-26T04:06:04.387Z,1016.26
2017-05-26T04:07:14.357Z,1016.27
2017-05-26T04:08:24.326Z,1016.3
2017-05-26T04:09:34.604Z,1016.28
2017-05-26T04:10:45.135Z,1016.29
2017-05-26T04:11:55.416Z,1016.29
2017-05-26T04:13:05.687Z,1016.29
2017-05-26T04:14:16.075Z,1016.31
2017-05-26T04:15:26.365Z,1016.33
2017-05-26T04:16:36.576Z,1016.34
2017-05-26T04:17:46.861Z,1016.34
2017-05-26T04:18:57.150Z,1016.33
2017-05-26T04:20:07.424Z,1016.33
2017-05-26T04:21:17.705Z,1016.33
2017-05-26T04:22:27.927Z,1016.33
2017-05-26T04:23:37.896Z,1016.36
2017-05-26T04:24:48.182Z,1016.37
2017-05-26T04:25:58.483Z,1016.34
2017-05-26T04:27:08.760Z,1016.37
2017-05-26T04:28:19.343Z,1016.38
2017-05-26T04:29:29.695Z,1016.33
2017-05-26T04:30:39.974Z,1016.36
2017-05-26T04:31:50.257Z,1016.37
2017-05-26T04:33:00.222Z,1016.36
2017-05-26T04:34:10.754Z,1016.33
2017-05-26T04:35:20.751Z,1016.32
2017-05-26T04:36:31.029Z,1016.35
2017-05-26T04:37:41.011Z,1016.33
2017-05-26T04:38:51.295Z,1016.34
2017-05-26T04:40:01.507Z,1016.3
2017-05-26T04:41:11.788Z,1016.31
2017-05-26T04:42:22.219Z,1016.3
2017-05-26T04:43:32.494Z,1016.35
2017-05-26T04:44:42.473Z,1016.3
2017-05-26T04:45:52.702Z,1016.31
2017-05-26T04:47:02.667Z,1016.25
2017-05-26T04:48:12.951Z,1016.25
2017-05-26T04:49:23.235Z,1016.24
2017-05-26T04:50:33.529Z,1016.19
2017-05-26T04:51:44.056Z,1016.27
2017-05-26T04:52:54.335Z,1016.24
2017-05-26T04:54:04.619Z,1016.25
2017-05-26T04:55:14.275Z,1016.22
2017-05-26T04:56:24.558Z,1016.22
2017-05-26T04:57:34.523Z,1016.21
2017-05-26T04:58:44.807Z,1016.22
2017-05-26T04:59:55.091Z,1016.2
2017-05-26T05:01:05.066Z,1016.23
2017-05-26T05:02:15.344Z,1016.23
2017-05-26T05:03:25.875Z,1016.24
2017-05-26T05:04:36.161Z,1016.25
2017-05-26T05:05:46.445Z,1016.25
2017-05-26T05:06:56.733Z,1016.25
2017-05-26T05:08:07.018Z,1016.26
2017-05-26T05:09:17.551Z,1016.3
2017-05-26T05:10:27.522Z,1016.32
2017-05-26T05:11:37.821Z,1016.39
2017-05-26T05:12:48.100Z,1016.39
2017-05-26T05:13:58.380Z,1016.39
2017-05-26T05:15:08.617Z,1016.37
2017-05-26T05:16:18.899Z,1016.38
2017-05-26T05:17:29.168Z,1016.39
2017-05-26T05:18:39.148Z,1016.37
2017-05-26T05:19:49.432Z,1016.43
2017-05-26T05:20:59.420Z,1016.42
2017-05-26T05:22:09.394Z,1016.42
2017-05-26T05:23:19.426Z,1016.43
2017-05-26T05:24:29.712Z,1016.46
2017-05-26T05:25:40.000Z,1016.46
2017-05-26T05:26:50.521Z,1016.45
2017-05-26T05:28:00.494Z,1016.49
2017-05-26T05:29:10.796Z,1016.48
2017-05-26T05:30:20.773Z,1016.5
2017-05-26T05:31:31.054Z,1016.5
2017-05-26T05:32:41.287Z,1016.54
2017-05-26T05:33:51.573Z,1016.49
2017-05-26T05:35:01.877Z,1016.52
2017-05-26T05:36:12.167Z,1016.52
2017-05-26T05:37:22.133Z,1016.52
2017-05-26T05:38:32.050Z,1016.51
2017-05-26T05:39:42.037Z,1016.52
2017-05-26T05:40:52.331Z,1016.54
2017-05-26T05:42:02.669Z,1016.56
2017-05-26T05:43:12.956Z,1016.56
2017-05-26T05:44:23.176Z,1016.55
2017-05-26T05:45:33.460Z,1016.58
2017-05-26T05:46:43.749Z,1016.61
2017-05-26T05:47:54.038Z,1016.63
2017-05-26T05:49:04.332Z,1016.63
2017-05-26T05:50:14.868Z,1016.65
2017-05-26T05:51:25.153Z,1016.69
2017-05-26T05:52:35.445Z,1016.74
2017-05-26T05:53:45.759Z,1016.72
2017-05-26T05:54:56.050Z,1016.7
2017-05-26T05:56:05.961Z,1016.73
2017-05-26T05:57:16.251Z,1016.66
2017-05-26T05:58:26.219Z,1016.69
2017-05-26T05:59:36.512Z,1016.73
2017-05-26T06:00:46.795Z,1016.7
2017-05-26T06:01:57.022Z,1016.69
2017-05-26T06:03:07.310Z,1016.7
2017-05-26T06:04:17.589Z,1016.76
2017-05-26T06:05:27.883Z,1016.75
2017-05-26T06:06:38.168Z,1016.78
2017-05-26T06:07:48.706Z,1016.79
2017-05-26T06:08:58.734Z,1016.77
2017-05-26T06:10:09.031Z,1016.76
2017-05-26T06:11:19.309Z,1016.81
2017-05-26T06:12:29.288Z,1016.77
2017-05-26T06:13:39.819Z,1016.78
2017-05-26T06:14:50.108Z,1016.8
2017-05-26T06:16:00.416Z,1016.81
2017-05-26T06:17:10.698Z,1016.82
2017-05-26T06:18:20.988Z,1016.84
2017-05-26T06:19:31.264Z,1016.82
2017-05-26T06:20:40.925Z,1016.78
2017-05-26T06:21:50.908Z,1016.82
2017-05-26T06:23:01.192Z,1016.85
2017-05-26T06:24:11.160Z,1016.9
2017-05-26T06:25:21.697Z,1016.9
2017-05-26T06:26:31.663Z,1016.93
2017-05-26T06:27:41.961Z,1016.91
2017-05-26T06:28:52.249Z,1016.92
2017-05-26T06:30:02.220Z,1016.91
2017-05-26T06:31:12.747Z,1016.91
2017-05-26T06:32:23.038Z,1016.92
2017-05-26T06:33:33.325Z,1016.99
2017-05-26T06:34:43.609Z,1016.98
2017-05-26T06:35:53.909Z,1016.98
2017-05-26T06:37:04.463Z,1017.01
2017-05-26T06:38:14.424Z,1017.06
2017-05-26T06:39:24.403Z,1017.06
2017-05-26T06:40:34.683Z,1017.05
2017-05-26T06:41:44.662Z,1017.07
2017-05-26T06:42:55.200Z,1017.07
2017-05-26T06:44:05.484Z,1017.09
2017-05-26T06:45:15.453Z,1017.05
2017-05-26T06:46:25.421Z,1017.04
2017-05-26T06:47:35.699Z,1017.05
2017-05-26T06:48:46.260Z,1017.06
2017-05-26T06:49:56.559Z,1017.11
2017-05-26T06:51:06.538Z,1017.13
2017-05-26T06:52:16.817Z,1017.13
2017-05-26T06:53:26.493Z,1017.11
2017-05-26T06:54:37.031Z,1017.13
2017-05-26T06:55:47.320Z,1017.14
2017-05-26T06:56:57.602Z,1017.17
2017-05-26T06:58:07.881Z,1017.15
2017-05-26T06:59:18.162Z,1017.16
2017-05-26T07:00:28.713Z,1017.18
2017-05-26T07:01:38.992Z,1017.18
2017-05-26T07:02:49.285Z,1017.19
2017-05-26T07:03:59.264Z,1017.19
2017-05-26T07:05:09.248Z,1017.21
2017-05-26T07:06:19.826Z,1017.2
2017-05-26T07:07:29.805Z,1017.21
2017-05-26T07:08:40.098Z,1017.27
2017-05-26T07:09:50.071Z,1017.28
2017-05-26T07:11:00.053Z,1017.3
2017-05-26T07:12:10.268Z,1017.26
2017-05-26T07:13:20.555Z,1017.26
2017-05-26T07:14:30.843Z,1017.3
2017-05-26T07:15:41.129Z,1017.28
2017-05-26T07:16:51.404Z,1017.27
2017-05-26T07:18:01.947Z,1017.3
2017-05-26T07:19:12.226Z,1017.25
2017-05-26T07:20:22.515Z,1017.28
2017-05-26T07:21:32.793Z,1017.25
2017-05-26T07:22:43.091Z,1017.31
2017-05-26T07:23:53.624Z,1017.31
2017-05-26T07:25:03.925Z,1017.3
2017-05-26T07:26:14.212Z,1017.27
2017-05-26T07:27:24.502Z,1017.31
2017-05-26T07:28:34.469Z,1017.33
2017-05-26T07:29:45.024Z,1017.33
2017-05-26T07:30:55.305Z,1017.31
2017-05-26T07:32:05.605Z,1017.32
2017-05-26T07:33:15.888Z,1017.3
2017-05-26T07:34:26.170Z,1017.28
2017-05-26T07:35:36.388Z,1017.27
2017-05-26T07:36:46.673Z,1017.3
2017-05-26T07:37:56.968Z,1017.25
2017-05-26T07:39:07.253Z,1017.3
2017-05-26T07:40:17.235Z,1017.24
2017-05-26T07:41:27.769Z,1017.3
2017-05-26T07:42:37.427Z,1017.28
2017-05-26T07:43:47.726Z,1017.27
2017-05-26T07:44:58.004Z,1017.29
2017-05-26T07:46:07.974Z,1017.31
2017-05-26T07:47:18.553Z,1017.29
2017-05-26T07:48:28.840Z,1017.24
2017-05-26T07:49:38.819Z,1017.27
2017-05-26T07:50:48.789Z,1017.23
2017-05-26T07:51:59.071Z,1017.27
2017-05-26T07:53:09.627Z,1017.28
2017-05-26T07:54:19.907Z,1017.33
2017-05-26T07:55:30.207Z,1017.35
2017-05-26T07:56:40.501Z,1017.42
2017-05-26T07:57:50.473Z,1017.41
2017-05-26T07:59:00.713Z,1017.39
2017-05-26T08:00:10.689Z,1017.38
2017-05-26T08:01:20.973Z,1017.4
2017-05-26T08:02:31.259Z,1017.38
2017-05-26T08:03:41.543Z,1017.42
2017-05-26T08:04:52.152Z,1017.4
2017-05-26T08:06:02.437Z,1017.41
2017-05-26T08:07:12.712Z,1017.41
2017-05-26T08:08:22.989Z,1017.44
2017-05-26T08:09:32.978Z,1017.46
2017-05-26T08:10:43.509Z,1017.48
2017-05-26T08:11:53.472Z,1017.43
2017-05-26T08:13:03.428Z,1017.44
2017-05-26T08:14:13.709Z,1017.44
2017-05-26T08:15:23.988Z,1017.42
2017-05-26T08:16:33.894Z,1017.41
2017-05-26T08:17:44.182Z,1017.41
2017-05-26T08:18:54.470Z,1017.41
2017-05-26T08:20:04.757Z,1017.38
2017-05-26T08:21:15.042Z,1017.38
2017-05-26T08:22:25.309Z,1017.39
2017-05-26T08:23:35.595Z,1017.38
2017-05-26T08:24:45.873Z,1017.43
2017-05-26T08:25:55.531Z,1017.41
2017-05-26T08:27:05.827Z,1017.45
2017-05-26T08:28:16.368Z,1017.44
2017-05-26T08:29:26.654Z,1017.42
2017-05-26T08:30:36.948Z,1017.44
2017-05-26T08:31:47.241Z,1017.49
2017-05-26T08:32:57.211Z,1017.45
2017-05-26T08:34:07.449Z,1017.4
2017-05-26T08:35:17.739Z,1017.38
2017-05-26T08:36:28.024Z,1017.36
2017-05-26T08:37:38.307Z,1017.44
2017-05-26T08:38:48.600Z,1017.41
2017-05-26T08:39:59.136Z,1017.43
2017-05-26T08:41:09.429Z,1017.4
2017-05-26T08:42:19.713Z,1017.39
2017-05-26T08:43:29.996Z,1017.4
2017-05-26T08:44:40.294Z,1017.38
2017-05-26T08:45:50.830Z,1017.33
2017-05-26T08:47:01.132Z,1017.35
2017-05-26T08:48:11.433Z,1017.3
2017-05-26T08:49:21.713Z,1017.33
2017-05-26T08:50:32.011Z,1017.35
2017-05-26T08:51:42.563Z,1017.33
2017-05-26T08:52:52.865Z,1017.32
2017-05-26T08:54:03.159Z,1017.29
2017-05-26T08:55:13.446Z,1017.29
2017-05-26T08:56:23.428Z,1017.24
2017-05-26T08:57:34.022Z,1017.31
2017-05-26T08:58:44.000Z,1017.26
2017-05-26T08:59:53.984Z,1017.25
2017-05-26T09:01:03.979Z,1017.25
2017-05-26T09:02:14.257Z,1017.2
2017-05-26T09:03:24.485Z,1017.26
2017-05-26T09:04:34.768Z,1017.24
2017-05-26T09:05:45.063Z,1017.26
2017-05-26T09:06:55.345Z,1017.26
2017-05-26T09:08:05.633Z,1017.3
2017-05-26T09:09:15.853Z,1017.32
2017-05-26T09:10:25.835Z,1017.29
2017-05-26T09:11:36.112Z,1017.33
2017-05-26T09:12:46.393Z,1017.3
2017-05-26T09:13:56.695Z,1017.35
2017-05-26T09:15:07.254Z,1017.34
2017-05-26T09:16:17.530Z,1017.32
2017-05-26T09:17:27.806Z,1017.32
2017-05-26T09:18:38.113Z,1017.31
2017-05-26T09:19:48.405Z,1017.28
2017-05-26T09:20:58.941Z,1017.33
2017-05-26T09:22:08.911Z,1017.26
2017-05-26T09:23:19.205Z,1017.27
2017-05-26T09:24:29.489Z,1017.27
2017-05-26T09:25:39.769Z,1017.25
2017-05-26T09:26:49.680Z,1017.25
2017-05-26T09:27:59.967Z,1017.28
2017-05-26T09:29:09.956Z,1017.22
2017-05-26T09:30:20.233Z,1017.21
2017-05-26T09:31:30.205Z,1017.22
2017-05-26T09:32:40.125Z,1017.24
2017-05-26T09:33:50.096Z,1017.23
2017-05-26T09:35:00.382Z,1017.26
2017-05-26T09:36:10.055Z,1017.26
2017-05-26T09:37:19.716Z,1017.27
2017-05-26T09:38:30.251Z,1017.28
2017-05-26T09:39:40.736Z,1017.26
2017-05-26T09:40:50.711Z,1017.29
2017-05-26T09:42:00.996Z,1017.3
2017-05-26T09:43:11.286Z,1017.31
2017-05-26T09:44:21.511Z,1017.28
2017-05-26T09:45:31.483Z,1017.34
2017-05-26T09:46:41.459Z,1017.31
2017-05-26T09:47:51.432Z,1017.37
2017-05-26T09:49:01.724Z,1017.37
2017-05-26T09:50:12.290Z,1017.35
2017-05-26T09:51:22.575Z,1017.33
2017-05-26T09:52:32.863Z,1017.31
2017-05-26T09:53:43.166Z,1017.31
2017-05-26T09:54:53.454Z,1017.31
2017-05-26T09:56:03.993Z,1017.31
2017-05-26T09:57:13.957Z,1017.36
2017-05-26T09:58:24.248Z,1017.34
2017-05-26T09:59:34.549Z,1017.28
2017-05-26T10:00:44.839Z,1017.3
2017-05-26T10:01:55.068Z,1017.2
2017-05-26T10:03:05.351Z,1017.22
2017-05-26T10:04:15.328Z,1017.22
2017-05-26T10:05:25.619Z,1017.19
2017-05-26T10:06:35.911Z,1017.17
2017-05-26T10:07:46.458Z,1017.14
2017-05-26T10:08:56.747Z,1017.22
2017-05-26T10:10:07.031Z,1017.22
2017-05-26T10:11:17.312Z,1017.19
2017-05-26T10:12:27.621Z,1017.22
2017-05-26T10:13:38.166Z,1017.19
2017-05-26T10:14:48.138Z,1017.16
2017-05-26T10:15:58.441Z,1017.19
2017-05-26T10:17:08.412Z,1017.19
2017-05-26T10:18:18.457Z,1017.16
2017-05-26T10:19:28.994Z,1017.16
2017-05-26T10:20:39.278Z,1017.15
2017-05-26T10:21:49.561Z,1017.17
2017-05-26T10:22:59.845Z,1017.11
2017-05-26T10:24:10.136Z,1017.11
2017-05-26T10:25:20.673Z,1017.11
2017-05-26T10:26:30.326Z,1017.1
2017-05-26T10:27:39.989Z,1017.05
2017-05-26T10:28:49.665Z,1017.03
2017-05-26T10:29:59.964Z,1017.03
2017-05-26T10:31:10.518Z,1017.03
2017-05-26T10:32:20.810Z,1017
2017-05-26T10:33:30.796Z,1016.96
2017-05-26T10:34:41.081Z,1016.94
2017-05-26T10:35:51.361Z,1016.98
2017-05-26T10:37:01.917Z,1017.02
2017-05-26T10:38:12.209Z,1017.01
2017-05-26T10:39:22.538Z,1016.98
2017-05-26T10:40:32.831Z,1016.91
2017-05-26T10:41:43.117Z,1016.96
2017-05-26T10:42:53.651Z,1016.95
2017-05-26T10:44:03.948Z,1016.95
2017-05-26T10:45:13.933Z,1016.95
2017-05-26T10:46:24.230Z,1016.92
2017-05-26T10:47:34.596Z,1016.91
2017-05-26T10:48:45.128Z,1016.96
2017-05-26T10:49:55.415Z,1016.91
2017-05-26T10:51:05.408Z,1016.91
2017-05-26T10:52:15.702Z,1016.85
2017-05-26T10:53:25.682Z,1016.87
2017-05-26T10:54:36.236Z,1016.88
2017-05-26T10:55:46.514Z,1016.83
2017-05-26T10:56:56.490Z,1016.88
2017-05-26T10:58:06.802Z,1016.88
2017-05-26T10:59:17.095Z,1016.87
2017-05-26T11:00:27.636Z,1016.88
2017-05-26T11:01:37.920Z,1016.89
2017-05-26T11:02:47.897Z,1016.87
2017-05-26T11:03:58.190Z,1016.86
2017-05-26T11:05:08.212Z,1016.86
2017-05-26T11:06:18.900Z,1016.87
2017-05-26T11:07:29.189Z,1016.88
2017-05-26T11:08:39.162Z,1016.91
2017-05-26T11:09:49.467Z,1016.86
2017-05-26T11:10:59.772Z,1016.89
2017-05-26T11:12:10.326Z,1016.87
2017-05-26T11:13:20.605Z,1016.86
2017-05-26T11:14:30.902Z,1016.83
2017-05-26T11:15:40.891Z,1016.86
2017-05-26T11:16:50.861Z,1016.91
2017-05-26T11:18:01.401Z,1016.85
2017-05-26T11:19:11.692Z,1016.84
2017-05-26T11:20:21.983Z,1016.8
2017-05-26T11:21:32.267Z,1016.82
2017-05-26T11:22:42.570Z,1016.85
2017-05-26T11:23:53.114Z,1016.87
2017-05-26T11:25:02.780Z,1016.84
2017-05-26T11:26:13.062Z,1016.8
2017-05-26T11:27:23.348Z,1016.83
2017-05-26T11:28:33.634Z,1016.83
2017-05-26T11:29:43.872Z,1016.83
2017-05-26T11:30:54.155Z,1016.83
2017-05-26T11:32:04.455Z,1016.88
2017-05-26T11:33:14.742Z,1016.83
2017-05-26T11:34:25.042Z,1016.81
2017-05-26T11:35:35.637Z,1016.88
2017-05-26T11:36:45.915Z,1016.91
2017-05-26T11:37:56.199Z,1016.91
2017-05-26T11:39:06.195Z,1016.92
2017-05-26T11:40:16.171Z,1016.9
2017-05-26T11:41:26.715Z,1016.9
2017-05-26T11:42:37.021Z,1016.84
2017-05-26T11:43:47.314Z,1016.85
2017-05-26T11:44:57.621Z,1016.84
2017-05-26T11:46:07.909Z,1016.84
2017-05-26T11:47:18.137Z,1016.88
2017-05-26T11:48:28.426Z,1016.89
2017-05-26T11:49:38.711Z,1016.83
2017-05-26T11:50:48.389Z,1016.84
2017-05-26T11:51:58.669Z,1016.79
2017-05-26T11:53:08.896Z,1016.84
2017-05-26T11:54:19.189Z,1016.85
2017-05-26T11:55:29.512Z,1016.82
2017-05-26T11:56:39.484Z,1016.81
2017-05-26T11:57:49.793Z,1016.78
2017-05-26T11:59:00.333Z,1016.81
2017-05-26T12:00:10.320Z,1016.78
2017-05-26T12:01:20.297Z,1016.78
2017-05-26T12:02:29.964Z,1016.81
2017-05-26T12:03:40.269Z,1016.77
2017-05-26T12:04:50.805Z,1016.79
2017-05-26T12:06:01.103Z,1016.76
2017-05-26T12:07:11.076Z,1016.75
2017-05-26T12:08:21.355Z,1016.75
2017-05-26T12:09:31.640Z,1016.75
2017-05-26T12:10:41.552Z,1016.76
2017-05-26T12:11:51.845Z,1016.73
2017-05-26T12:13:01.815Z,1016.75
2017-05-26T12:14:12.112Z,1016.72
2017-05-26T12:15:22.103Z,1016.75
2017-05-26T12:16:32.638Z,1016.75
2017-05-26T12:17:42.941Z,1016.74
2017-05-26T12:18:52.612Z,1016.71
2017-05-26T12:20:02.281Z,1016.72
2017-05-26T12:21:12.565Z,1016.7
2017-05-26T12:22:22.791Z,1016.76
2017-05-26T12:23:32.769Z,1016.75
2017-05-26T12:24:43.056Z,1016.71
2017-05-26T12:25:53.044Z,1016.7
2017-05-26T12:27:03.326Z,1016.7
2017-05-26T12:28:13.863Z,1016.7
2017-05-26T12:29:24.167Z,1016.69
2017-05-26T12:30:33.825Z,1016.68
2017-05-26T12:31:43.811Z,1016.65
2017-05-26T12:32:53.491Z,1016.63
2017-05-26T12:34:04.027Z,1016.65
2017-05-26T12:35:14.392Z,1016.62
2017-05-26T12:36:24.371Z,1016.65
2017-05-26T12:37:34.668Z,1016.59
2017-05-26T12:38:44.954Z,1016.61
2017-05-26T12:39:55.511Z,1016.52
2017-05-26T12:41:05.796Z,1016.51
2017-05-26T12:42:16.085Z,1016.52
2017-05-26T12:43:26.052Z,1016.5
2017-05-26T12:44:36.338Z,1016.5
2017-05-26T12:45:46.564Z,1016.5
2017-05-26T12:46:56.847Z,1016.49
2017-05-26T12:48:07.156Z,1016.51
2017-05-26T12:49:17.442Z,1016.47
2017-05-26T12:50:27.425Z,1016.46
2017-05-26T12:51:37.671Z,1016.45
2017-05-26T12:52:47.641Z,1016.46
2017-05-26T12:53:57.926Z,1016.49
2017-05-26T12:55:07.908Z,1016.5
2017-05-26T12:56:18.199Z,1016.5
2017-05-26T12:57:28.119Z,1016.48
2017-05-26T12:58:38.402Z,1016.47
2017-05-26T12:59:48.068Z,1016.44
2017-05-26T13:00:58.360Z,1016.44
2017-05-26T13:02:08.351Z,1016.41
2017-05-26T13:03:18.902Z,1016.4
2017-05-26T13:04:28.889Z,1016.42
2017-05-26T13:05:39.182Z,1016.41
2017-05-26T13:06:48.862Z,1016.41
2017-05-26T13:07:58.843Z,1016.41
2017-05-26T13:09:09.392Z,1016.41
2017-05-26T13:10:19.363Z,1016.42
2017-05-26T13:11:29.657Z,1016.41
2017-05-26T13:12:39.948Z,1016.37
2017-05-26T13:13:50.236Z,1016.39
2017-05-26T13:15:00.795Z,1016.36
2017-05-26T13:16:11.084Z,1016.36
2017-05-26T13:17:21.374Z,1016.41
2017-05-26T13:18:31.366Z,1016.38
2017-05-26T13:19:41.341Z,1016.38
2017-05-26T13:20:51.883Z,1016.41
2017-05-26T13:22:01.538Z,1016.4
2017-05-26T13:23:11.818Z,1016.4
2017-05-26T13:24:22.099Z,1016.4
2017-05-26T13:25:32.375Z,1016.39
2017-05-26T13:26:42.617Z,1016.41
2017-05-26T13:27:52.901Z,1016.37
2017-05-26T13:29:03.182Z,1016.36
2017-05-26T13:30:13.487Z,1016.35
2017-05-26T13:31:23.180Z,1016.32
2017-05-26T13:32:33.709Z,1016.34
2017-05-26T13:33:43.687Z,1016.31
2017-05-26T13:34:53.973Z,1016.27
2017-05-26T13:36:03.325Z,1016.28
2017-05-26T13:37:12.987Z,1016.27
2017-05-26T13:38:23.526Z,1016.31
2017-05-26T13:39:33.179Z,1016.24
2017-05-26T13:40:43.147Z,1016.24
2017-05-26T13:41:53.445Z,1016.29
2017-05-26T13:43:03.730Z,1016.28
2017-05-26T13:44:14.023Z,1016.32
2017-05-26T13:45:23.991Z,1016.29
2017-05-26T13:46:34.283Z,1016.29
2017-05-26T13:47:44.570Z,1016.32
2017-05-26T13:48:54.867Z,1016.33
2017-05-26T13:50:05.534Z,1016.34
2017-05-26T13:51:15.827Z,1016.3
2017-05-26T13:52:26.175Z,1016.34
2017-05-26T13:53:36.463Z,1016.32
2017-05-26T13:54:46.744Z,1016.28
2017-05-26T13:55:56.983Z,1016.3
2017-05-26T13:57:07.257Z,1016.29
2017-05-26T13:58:17.239Z,1016.28
2017-05-26T13:59:27.541Z,1016.29
2017-05-26T14:00:37.507Z,1016.28
2017-05-26T14:01:48.045Z,1016.26
2017-05-26T14:02:58.323Z,1016.29
2017-05-26T14:04:08.623Z,1016.28
2017-05-26T14:05:18.914Z,1016.32
2017-05-26T14:06:29.206Z,1016.27
2017-05-26T14:07:39.735Z,1016.29
2017-05-26T14:08:49.143Z,1016.33
2017-05-26T14:09:59.114Z,1016.26
2017-05-26T14:11:09.395Z,1016.26
2017-05-26T14:12:19.366Z,1016.24